Time;durP1;ratioP1;P1;durP2;ratioP2;P2;SDS_P1;SDS_P2;PMS_P1;PMS_P2;Temp;Humidity;BMP_temperature;BMP_pressure;BME280_temperature;BME280_humidity;BME280_pressure;Samples;Min_cycle;Max_cycle;Signal;HPM_P1;HPM_P2
2023/06/04 00:00:29;;;;;;;0.20;0.20;;;7.30;99.90;;;;;;5034951;28;20462;-74
2023/06/04 00:02:54;;;;;;;0.22;0.22;;;7.20;99.90;;;;;;5034930;28;20487;-74
2023/06/04 00:05:22;;;;;;;0.20;0.20;;;7.20;99.90;;;;;;5034941;28;20030;-74
2023/06/04 00:07:47;;;;;;;0.30;0.30;;;7.20;99.90;;;;;;5034924;28;20049;-74
2023/06/04 00:10:13;;;;;;;0.20;0.20;;;7.10;99.90;;;;;;5034922;28;20099;-74
2023/06/04 00:12:39;;;;;;;0.20;0.20;;;7.10;99.90;;;;;;5034940;28;20037;-74
2023/06/04 00:15:05;;;;;;;0.20;0.20;;;7.10;99.90;;;;;;5034768;28;20030;-74
2023/06/04 00:17:30;;;;;;;0.20;0.20;;;7.00;99.90;;;;;;5034695;28;20013;-74
2023/06/04 00:19:56;;;;;;;0.20;0.20;;;7.00;99.90;;;;;;5034236;28;20026;-74
2023/06/04 00:22:21;;;;;;;0.30;0.30;;;7.00;99.90;;;;;;5034222;28;20022;-74
2023/06/04 00:24:47;;;;;;;0.20;0.20;;;6.90;99.90;;;;;;5034721;28;20395;-74
2023/06/04 00:27:12;;;;;;;0.20;0.20;;;6.90;99.90;;;;;;5034546;28;20026;-74
2023/06/04 00:29:38;;;;;;;0.20;0.20;;;6.90;99.90;;;;;;5034747;28;20070;-74
2023/06/04 00:32:04;;;;;;;0.20;0.20;;;6.90;99.90;;;;;;5034250;28;20033;-74
2023/06/04 00:34:30;;;;;;;0.20;0.20;;;6.90;99.90;;;;;;5034333;28;20025;-74
2023/06/04 00:36:55;;;;;;;0.20;0.20;;;6.80;99.90;;;;;;5034261;28;20079;-74
2023/06/04 00:39:21;;;;;;;0.20;0.20;;;6.80;99.90;;;;;;5034275;28;20047;-74
2023/06/04 00:41:46;;;;;;;0.10;0.10;;;6.80;99.90;;;;;;5034648;28;20464;-74
2023/06/04 00:44:12;;;;;;;0.20;0.20;;;6.80;99.90;;;;;;5016617;28;20021;-74
2023/06/04 00:46:37;;;;;;;0.20;0.20;;;6.80;99.90;;;;;;5034161;28;20033;-74
2023/06/04 00:49:04;;;;;;;0.20;0.20;;;6.70;99.90;;;;;;5034048;28;20068;-75
2023/06/04 00:51:31;;;;;;;0.10;0.10;;;6.60;99.90;;;;;;5034128;28;20017;-75
2023/06/04 00:53:58;;;;;;;0.20;0.20;;;6.60;99.90;;;;;;5033930;28;20095;-74
2023/06/04 00:56:23;;;;;;;0.30;0.30;;;6.60;99.90;;;;;;5016101;28;20021;-74
2023/06/04 00:58:49;;;;;;;0.20;0.20;;;6.50;99.90;;;;;;5034093;28;20048;-74
2023/06/04 01:01:34;;;;;;;0.20;0.20;;;6.50;99.90;;;;;;5034020;28;20026;-74
2023/06/04 01:04:02;;;;;;;0.30;0.30;;;6.50;99.90;;;;;;5015866;28;20430;-74
2023/06/04 01:06:49;;;;;;;0.20;0.20;;;6.50;99.90;;;;;;5033734;28;20026;-74
2023/06/04 01:09:15;;;;;;;0.20;0.20;;;6.50;99.90;;;;;;5033922;28;20112;-74
2023/06/04 01:11:41;;;;;;;0.15;0.15;;;6.50;99.90;;;;;;5015863;28;20060;-74
2023/06/04 01:14:09;;;;;;;0.30;0.30;;;6.40;99.90;;;;;;5033674;28;20444;-74
2023/06/04 01:17:02;;;;;;;0.20;0.20;;;6.40;99.90;;;;;;5033773;28;20105;-74
2023/06/04 01:19:40;;;;;;;0.20;0.20;;;6.40;99.90;;;;;;5033573;28;20025;-73
2023/06/04 01:22:24;;;;;;;0.30;0.30;;;6.30;99.90;;;;;;5033752;28;20483;-73
2023/06/04 01:24:55;;;;;;;0.30;0.30;;;6.20;99.90;;;;;;5033735;28;20442;-73
2023/06/04 01:27:22;;;;;;;0.20;0.20;;;6.10;99.90;;;;;;5033612;28;20096;-73
2023/06/04 01:29:49;;;;;;;0.22;0.22;;;6.10;99.90;;;;;;5033393;28;20095;-74
2023/06/04 01:32:16;;;;;;;0.28;0.28;;;6.00;99.90;;;;;;5033357;28;20026;-73
2023/06/04 01:34:47;;;;;;;0.20;0.20;;;6.00;99.90;;;;;;5033265;28;20022;-73
2023/06/04 01:37:13;;;;;;;0.30;0.30;;;6.00;99.90;;;;;;5033291;28;20018;-74
2023/06/04 01:39:38;;;;;;;0.20;0.20;;;6.10;99.90;;;;;;5033028;28;20079;-74
2023/06/04 01:42:04;;;;;;;0.30;0.30;;;6.10;99.90;;;;;;5033005;28;20124;-74
2023/06/04 01:44:30;;;;;;;0.20;0.20;;;6.10;99.90;;;;;;5033004;28;20029;-73
2023/06/04 01:46:55;;;;;;;0.30;0.30;;;6.10;99.90;;;;;;5032979;28;20033;-74
2023/06/04 01:49:21;;;;;;;0.15;0.15;;;6.00;99.90;;;;;;5033272;28;20052;-73
2023/06/04 01:51:46;;;;;;;0.20;0.20;;;6.00;99.90;;;;;;5032748;28;20033;-73
2023/06/04 01:54:12;;;;;;;0.30;0.30;;;6.00;99.90;;;;;;5032858;28;20024;-74
2023/06/04 01:56:37;;;;;;;0.38;0.38;;;5.90;99.90;;;;;;5032953;28;20024;-73
2023/06/04 01:59:04;;;;;;;0.30;0.30;;;5.90;99.90;;;;;;5032981;28;20026;-75
2023/06/04 02:01:29;;;;;;;0.20;0.20;;;5.80;99.90;;;;;;5032755;28;20097;-75
2023/06/04 02:03:55;;;;;;;0.20;0.20;;;5.80;99.90;;;;;;5033047;28;20056;-75
2023/06/04 02:06:20;;;;;;;0.15;0.15;;;5.80;99.90;;;;;;5032889;28;20425;-75
2023/06/04 02:08:46;;;;;;;0.20;0.20;;;5.80;99.90;;;;;;5032989;28;20111;-74
2023/06/04 02:11:11;;;;;;;0.30;0.30;;;5.80;99.90;;;;;;5033072;28;20033;-74
2023/06/04 02:13:37;;;;;;;0.20;0.20;;;5.80;99.90;;;;;;5032501;28;20052;-74
2023/06/04 02:16:03;;;;;;;0.20;0.20;;;5.80;99.90;;;;;;5032819;28;20017;-74
2023/06/04 02:18:28;;;;;;;0.30;0.30;;;5.80;99.90;;;;;;5033182;28;20092;-74
2023/06/04 02:20:56;;;;;;;0.20;0.20;;;5.80;99.90;;;;;;5032525;28;20018;-74
2023/06/04 02:23:21;;;;;;;0.30;0.30;;;5.80;99.90;;;;;;5032846;28;20022;-74
2023/06/04 02:25:49;;;;;;;0.28;0.28;;;5.80;99.90;;;;;;5032399;28;20528;-74
2023/06/04 02:28:15;;;;;;;0.20;0.20;;;5.80;99.90;;;;;;5015158;28;20032;-74
2023/06/04 02:30:41;;;;;;;0.22;0.22;;;5.80;99.90;;;;;;5032514;28;20116;-75
2023/06/04 02:33:09;;;;;;;0.20;0.20;;;5.70;99.90;;;;;;5032875;28;20547;-74
2023/06/04 02:35:35;;;;;;;0.30;0.30;;;5.60;99.90;;;;;;5032384;28;20022;-74
2023/06/04 02:38:00;;;;;;;0.17;0.17;;;5.60;99.90;;;;;;5032577;28;20083;-74
2023/06/04 02:40:26;;;;;;;0.30;0.30;;;5.50;99.90;;;;;;5032461;28;20037;-74
2023/06/04 02:42:53;;;;;;;0.30;0.30;;;5.40;99.90;;;;;;5032199;28;20068;-75
2023/06/04 02:45:18;;;;;;;0.30;0.30;;;5.40;99.90;;;;;;5036007;28;20030;-74
2023/06/04 02:47:44;;;;;;;0.20;0.20;;;5.40;99.90;;;;;;5036459;28;20021;-74
2023/06/04 02:50:10;;;;;;;0.20;0.20;;;5.40;99.90;;;;;;5036536;28;20025;-74
2023/06/04 02:52:39;;;;;;;0.20;0.20;;;5.40;99.90;;;;;;5036522;28;20041;-74
2023/06/04 02:55:06;;;;;;;0.20;0.20;;;5.40;99.90;;;;;;5018469;28;20093;-74
2023/06/04 02:57:32;;;;;;;0.20;0.20;;;5.40;99.90;;;;;;5036375;28;20018;-74
2023/06/04 02:59:59;;;;;;;0.30;0.30;;;5.40;99.90;;;;;;5036056;28;20028;-74
2023/06/04 03:02:24;;;;;;;0.20;0.20;;;5.40;99.90;;;;;;5035963;28;20032;-74
2023/06/04 03:04:51;;;;;;;0.25;0.25;;;5.40;99.90;;;;;;5036038;28;20021;-75
2023/06/04 03:07:20;;;;;;;0.30;0.30;;;5.40;99.90;;;;;;5035738;28;20053;-75
2023/06/04 03:09:47;;;;;;;0.30;0.30;;;5.40;99.90;;;;;;5035839;28;20032;-75
2023/06/04 03:12:12;;;;;;;0.20;0.20;;;5.40;99.90;;;;;;5036055;28;20022;-74
2023/06/04 03:14:38;;;;;;;0.20;0.20;;;5.40;99.90;;;;;;5035698;28;20060;-74
2023/06/04 03:17:07;;;;;;;0.20;0.20;;;5.30;99.90;;;;;;5035705;28;20025;-74
2023/06/04 03:19:37;;;;;;;0.22;0.22;;;5.40;99.90;;;;;;5035433;28;20410;-75
2023/06/04 03:22:05;;;;;;;0.22;0.22;;;5.40;99.90;;;;;;5035862;28;20064;-75
2023/06/04 03:24:35;;;;;;;0.30;0.30;;;5.40;99.90;;;;;;5035680;28;20053;-75
2023/06/04 03:27:01;;;;;;;0.28;0.28;;;5.40;99.90;;;;;;5035526;28;20499;-75
2023/06/04 03:29:26;;;;;;;0.30;0.30;;;5.30;99.90;;;;;;5035413;28;20072;-75
2023/06/04 03:31:52;;;;;;;0.20;0.20;;;5.30;99.90;;;;;;5035458;28;20037;-75
2023/06/04 03:34:18;;;;;;;0.30;0.30;;;5.30;99.90;;;;;;5035438;28;20061;-75
2023/06/04 03:36:43;;;;;;;0.20;0.20;;;5.30;99.90;;;;;;5035314;28;20443;-75
2023/06/04 03:39:09;;;;;;;0.20;0.20;;;5.30;99.90;;;;;;5035316;28;20112;-74
2023/06/04 03:41:35;;;;;;;0.20;0.20;;;5.30;99.90;;;;;;5035573;28;20101;-75
2023/06/04 03:44:00;;;;;;;0.25;0.25;;;5.30;99.90;;;;;;5035421;28;20068;-75
2023/06/04 03:46:29;;;;;;;0.20;0.20;;;5.40;99.90;;;;;;5035134;28;20037;-74
2023/06/04 03:48:54;;;;;;;0.20;0.20;;;5.30;99.90;;;;;;5035183;28;20021;-75
2023/06/04 03:51:20;;;;;;;0.20;0.20;;;5.40;99.90;;;;;;5035089;28;20089;-75
2023/06/04 03:53:45;;;;;;;0.28;0.28;;;5.30;99.90;;;;;;5035416;28;20034;-74
2023/06/04 03:56:11;;;;;;;0.30;0.30;;;5.40;99.90;;;;;;5033908;28;20108;-75
2023/06/04 03:58:36;;;;;;;0.30;0.30;;;5.40;99.90;;;;;;5034991;28;20030;-74
2023/06/04 04:01:04;;;;;;;0.20;0.20;;;5.50;99.90;;;;;;5035128;28;20415;-74
2023/06/04 04:03:30;;;;;;;0.40;0.40;;;5.60;99.90;;;;;;5035150;28;20024;-74
2023/06/04 04:05:57;;;;;;;0.25;0.25;;;5.60;99.90;;;;;;5035152;28;20113;-75
2023/06/04 04:08:23;;;;;;;0.20;0.20;;;5.70;99.90;;;;;;5035089;28;20029;-75
2023/06/04 04:10:49;;;;;;;0.20;0.20;;;5.80;99.90;;;;;;5034974;28;20025;-75
2023/06/04 04:13:14;;;;;;;0.20;0.20;;;5.80;99.90;;;;;;5035019;28;20057;-75
2023/06/04 04:15:40;;;;;;;0.20;0.20;;;5.90;99.90;;;;;;5034843;28;20056;-75
2023/06/04 04:18:08;;;;;;;0.30;0.30;;;6.00;99.90;;;;;;5034917;28;20021;-74
2023/06/04 04:20:33;;;;;;;0.30;0.30;;;6.10;99.90;;;;;;5034924;28;20021;-75
2023/06/04 04:22:59;;;;;;;0.20;0.20;;;6.20;99.90;;;;;;5034876;28;20360;-75
2023/06/04 04:25:25;;;;;;;0.20;0.20;;;6.30;99.90;;;;;;5034779;28;20021;-75
2023/06/04 04:27:50;;;;;;;0.25;0.25;;;6.30;99.90;;;;;;5034993;28;20033;-75
2023/06/04 04:30:17;;;;;;;0.20;0.20;;;6.40;99.90;;;;;;5034756;28;20025;-74
2023/06/04 04:32:48;;;;;;;0.20;0.20;;;6.50;99.90;;;;;;5034962;28;20025;-74
2023/06/04 04:35:14;;;;;;;0.20;0.20;;;6.60;99.90;;;;;;5034525;28;20116;-75
2023/06/04 04:37:40;;;;;;;0.30;0.30;;;6.80;99.90;;;;;;5034552;28;20021;-75
2023/06/04 04:40:09;;;;;;;0.20;0.20;;;6.90;99.90;;;;;;5034217;28;20037;-75
2023/06/04 04:42:36;;;;;;;0.30;0.30;;;7.10;99.90;;;;;;5034712;28;20059;-75
2023/06/04 04:45:02;;;;;;;0.30;0.30;;;7.30;99.90;;;;;;5016644;28;20112;-75
2023/06/04 04:47:27;;;;;;;0.20;0.20;;;7.40;99.90;;;;;;5034313;28;20027;-75
2023/06/04 04:49:53;;;;;;;0.20;0.20;;;7.60;99.90;;;;;;5034180;28;20470;-75
2023/06/04 04:52:18;;;;;;;0.20;0.20;;;7.70;99.90;;;;;;5034492;28;20032;-75
2023/06/04 04:54:44;;;;;;;0.20;0.20;;;7.80;99.90;;;;;;5034632;28;20037;-75
2023/06/04 04:57:09;;;;;;;0.20;0.20;;;7.90;99.90;;;;;;5034087;28;20025;-75
2023/06/04 04:59:35;;;;;;;0.20;0.20;;;8.10;99.90;;;;;;5034084;28;20017;-75
2023/06/04 05:02:01;;;;;;;0.20;0.20;;;8.20;99.90;;;;;;5034080;28;20021;-75
2023/06/04 05:04:26;;;;;;;0.20;0.20;;;8.40;99.90;;;;;;5034252;28;20044;-75
2023/06/04 05:06:52;;;;;;;0.10;0.10;;;8.60;99.90;;;;;;5033589;28;20072;-75
2023/06/04 05:09:17;;;;;;;0.20;0.20;;;8.80;99.90;;;;;;5033897;28;20026;-75
2023/06/04 05:11:43;;;;;;;0.20;0.20;;;9.00;99.90;;;;;;5033843;28;20025;-75
2023/06/04 05:14:08;;;;;;;0.20;0.20;;;9.10;99.90;;;;;;5033773;28;20079;-75
2023/06/04 05:16:35;;;;;;;0.20;0.20;;;9.30;99.90;;;;;;5034072;28;20040;-75
2023/06/04 05:19:01;;;;;;;0.17;0.17;;;9.40;99.90;;;;;;5033742;28;20021;-75
2023/06/04 05:21:28;;;;;;;0.20;0.20;;;9.50;99.90;;;;;;5033846;28;20389;-75
2023/06/04 05:23:55;;;;;;;0.20;0.20;;;9.60;99.90;;;;;;5034205;28;20018;-75
2023/06/04 05:26:28;;;;;;;0.20;0.20;;;9.70;99.90;;;;;;5033987;28;20021;-75
2023/06/04 05:28:53;;;;;;;0.20;0.20;;;9.80;99.90;;;;;;5033598;28;20040;-75
2023/06/04 05:31:19;;;;;;;0.17;0.17;;;9.80;99.90;;;;;;5031046;28;20475;-75
2023/06/04 05:33:45;;;;;;;0.20;0.20;;;9.90;99.90;;;;;;5020319;28;20399;-75
2023/06/04 05:36:12;;;;;;;0.20;0.20;;;10.00;99.90;;;;;;5013451;28;20491;-75
2023/06/04 05:38:37;;;;;;;0.20;0.20;;;10.00;99.90;;;;;;5013606;28;20089;-75
2023/06/04 05:41:03;;;;;;;0.10;0.10;;;10.20;99.90;;;;;;5013050;28;20042;-75
2023/06/04 05:43:28;;;;;;;0.20;0.20;;;10.40;99.90;;;;;;5013587;28;20025;-75
2023/06/04 05:45:54;;;;;;;0.20;0.20;;;10.60;99.90;;;;;;5013849;28;20104;-75
2023/06/04 05:48:19;;;;;;;0.20;0.20;;;10.70;99.90;;;;;;5021943;28;20036;-75
2023/06/04 05:50:47;;;;;;;0.17;0.17;;;10.80;99.90;;;;;;5032974;28;20490;-75
2023/06/04 05:53:12;;;;;;;0.30;0.30;;;11.00;99.90;;;;;;5033057;28;20041;-75
2023/06/04 05:55:38;;;;;;;0.30;0.30;;;11.20;99.90;;;;;;5033014;28;20402;-75
2023/06/04 05:58:04;;;;;;;0.20;0.20;;;11.40;99.90;;;;;;5032996;28;20037;-75
2023/06/04 06:00:29;;;;;;;0.10;0.10;;;11.60;99.90;;;;;;5033131;28;20030;-75
2023/06/04 06:02:56;;;;;;;0.20;0.20;;;11.80;99.90;;;;;;5033050;28;20025;-75
2023/06/04 06:05:21;;;;;;;0.17;0.17;;;12.00;99.90;;;;;;5032797;28;20471;-75
2023/06/04 06:07:47;;;;;;;0.20;0.20;;;12.20;99.90;;;;;;5032948;28;20029;-75
2023/06/04 06:10:13;;;;;;;0.20;0.20;;;12.30;99.90;;;;;;5032700;28;20471;-75
2023/06/04 06:12:39;;;;;;;0.20;0.20;;;12.50;99.90;;;;;;5032945;28;20028;-75
2023/06/04 06:15:06;;;;;;;0.20;0.20;;;12.60;99.90;;;;;;5033198;28;20022;-75
2023/06/04 06:17:32;;;;;;;0.20;0.20;;;12.90;99.90;;;;;;5032796;28;20018;-75
2023/06/04 06:19:58;;;;;;;0.20;0.20;;;12.80;99.90;;;;;;5035658;28;20052;-75
2023/06/04 06:22:24;;;;;;;0.20;0.20;;;12.80;99.90;;;;;;5037050;28;20017;-75
2023/06/04 06:24:50;;;;;;;0.20;0.20;;;12.90;99.90;;;;;;5036679;28;20021;-75
2023/06/04 06:27:16;;;;;;;0.20;0.20;;;12.90;99.90;;;;;;5037101;28;20025;-75
2023/06/04 06:29:43;;;;;;;0.10;0.10;;;13.10;99.90;;;;;;5036857;28;20052;-75
2023/06/04 06:32:09;;;;;;;0.25;0.25;;;13.00;99.90;;;;;;5036970;28;20029;-75
2023/06/04 06:34:35;;;;;;;0.20;0.20;;;13.00;99.90;;;;;;5037023;28;20022;-75
2023/06/04 06:37:00;;;;;;;0.20;0.20;;;12.90;99.90;;;;;;5036934;28;20151;-75
2023/06/04 06:39:26;;;;;;;0.30;0.30;;;12.80;99.90;;;;;;5036647;28;20068;-75
2023/06/04 06:41:52;;;;;;;0.20;0.20;;;12.80;99.90;;;;;;5018936;28;20018;-75
2023/06/04 06:44:17;;;;;;;0.20;0.20;;;12.80;99.90;;;;;;5036777;28;20533;-75
2023/06/04 06:46:43;;;;;;;0.20;0.20;;;12.80;99.90;;;;;;5036838;28;20372;-75
2023/06/04 06:49:08;;;;;;;0.20;0.20;;;12.70;99.90;;;;;;5036898;28;20029;-75
2023/06/04 06:51:34;;;;;;;0.20;0.20;;;12.70;99.90;;;;;;5038760;28;20387;-78
2023/06/04 06:53:59;;;;;;;0.20;0.20;;;12.90;99.90;;;;;;5038519;28;20025;-77
2023/06/04 06:56:26;;;;;;;0.20;0.20;;;12.90;99.90;;;;;;5039626;28;20120;-78
2023/06/04 06:58:51;;;;;;;0.17;0.17;;;12.90;99.90;;;;;;5022660;28;20384;-78
2023/06/04 07:01:17;;;;;;;0.20;0.20;;;12.90;99.90;;;;;;5040365;28;20034;-78
2023/06/04 07:03:42;;;;;;;0.10;0.10;;;13.00;99.90;;;;;;5040085;28;20025;-78
2023/06/04 07:06:08;;;;;;;0.20;0.20;;;13.00;99.90;;;;;;5039533;28;20495;-78
2023/06/04 07:08:33;;;;;;;0.20;0.20;;;13.10;99.90;;;;;;5039252;28;20034;-78
2023/06/04 07:11:01;;;;;;;0.20;0.20;;;13.10;99.90;;;;;;5039029;28;20053;-78
2023/06/04 07:13:26;;;;;;;0.20;0.20;;;13.10;99.90;;;;;;5040077;28;20084;-78
2023/06/04 07:15:52;;;;;;;0.20;0.20;;;13.30;99.90;;;;;;5040584;28;20096;-78
2023/06/04 07:18:18;;;;;;;0.20;0.20;;;13.40;99.90;;;;;;5040154;28;20022;-78
2023/06/04 07:20:43;;;;;;;0.10;0.10;;;13.40;99.90;;;;;;5039713;28;20483;-78
2023/06/04 07:23:09;;;;;;;0.20;0.20;;;13.50;99.90;;;;;;5037546;28;20132;-76
2023/06/04 07:25:35;;;;;;;0.10;0.10;;;13.40;99.90;;;;;;5035559;28;20025;-76
2023/06/04 07:28:03;;;;;;;0.20;0.20;;;13.40;99.90;;;;;;5035728;28;20094;-76
2023/06/04 07:30:30;;;;;;;0.20;0.20;;;13.60;99.90;;;;;;5035209;28;20028;-76
2023/06/04 07:32:56;;;;;;;0.20;0.20;;;13.60;99.90;;;;;;5035254;28;20037;-76
2023/06/04 07:35:21;;;;;;;0.20;0.20;;;13.50;99.90;;;;;;5035507;28;20031;-77
2023/06/04 07:37:49;;;;;;;0.20;0.20;;;13.40;99.90;;;;;;5035926;28;20017;-76
2023/06/04 07:40:15;;;;;;;0.20;0.20;;;13.40;99.90;;;;;;5035448;28;20436;-77
2023/06/04 07:42:42;;;;;;;0.20;0.20;;;13.50;99.90;;;;;;5035249;28;20030;-77
2023/06/04 07:45:08;;;;;;;0.20;0.20;;;13.90;99.90;;;;;;5035378;28;20067;-77
2023/06/04 07:47:36;;;;;;;0.20;0.20;;;14.20;99.90;;;;;;5035050;28;20022;-75
2023/06/04 07:50:02;;;;;;;0.20;0.20;;;14.30;99.90;;;;;;5035342;28;20032;-77
2023/06/04 07:52:28;;;;;;;0.20;0.20;;;14.50;99.90;;;;;;5034936;28;20485;-76
2023/06/04 07:54:53;;;;;;;0.20;0.20;;;14.50;99.90;;;;;;5035050;28;20061;-76
2023/06/04 07:57:19;;;;;;;0.15;0.15;;;14.70;99.90;;;;;;5035169;28;20442;-76
2023/06/04 07:59:44;;;;;;;0.20;0.20;;;14.80;99.90;;;;;;5034996;28;20056;-76
2023/06/04 08:02:10;;;;;;;0.20;0.20;;;14.90;99.90;;;;;;5034492;28;20021;-76
2023/06/04 08:04:35;;;;;;;0.20;0.20;;;14.80;99.90;;;;;;5034913;28;20466;-76
2023/06/04 08:07:01;;;;;;;0.20;0.20;;;14.90;99.90;;;;;;5034879;28;20407;-77
2023/06/04 08:09:26;;;;;;;0.20;0.20;;;14.90;99.90;;;;;;5034749;28;20100;-77
2023/06/04 08:11:52;;;;;;;0.20;0.20;;;15.10;99.90;;;;;;5034996;28;20403;-77
2023/06/04 08:14:19;;;;;;;0.13;0.13;;;15.10;99.90;;;;;;5034577;28;20033;-77
2023/06/04 08:16:45;;;;;;;0.20;0.20;;;15.00;99.90;;;;;;5034490;28;20070;-77
2023/06/04 08:19:10;;;;;;;0.20;0.20;;;14.80;99.90;;;;;;5034637;28;20026;-77
2023/06/04 08:21:37;;;;;;;0.20;0.20;;;14.60;99.90;;;;;;5018119;28;20022;-77
2023/06/04 08:24:03;;;;;;;0.20;0.20;;;14.70;99.90;;;;;;5034775;28;20475;-77
2023/06/04 08:26:28;;;;;;;0.20;0.20;;;14.60;99.90;;;;;;5034995;28;20044;-78
2023/06/04 08:28:55;;;;;;;0.20;0.20;;;14.50;99.90;;;;;;5016647;28;20483;-77
2023/06/04 08:31:21;;;;;;;0.20;0.20;;;14.90;99.90;;;;;;5035092;28;20061;-77
2023/06/04 08:33:47;;;;;;;0.20;0.20;;;14.90;99.90;;;;;;5016797;28;20091;-76
2023/06/04 08:36:13;;;;;;;0.20;0.20;;;14.90;99.90;;;;;;5034363;28;20479;-76
2023/06/04 08:38:38;;;;;;;0.20;0.20;;;14.90;99.90;;;;;;5037519;28;20108;-77
2023/06/04 08:41:14;;;;;;;0.20;0.20;;;14.90;99.90;;;;;;5033954;28;20041;-78
2023/06/04 08:43:43;;;;;;;0.20;0.20;;;14.60;99.90;;;;;;5035178;28;20033;-76
2023/06/04 08:46:09;;;;;;;0.20;0.20;;;14.50;99.90;;;;;;5017736;28;20541;-78
2023/06/04 08:48:37;;;;;;;0.20;0.20;;;14.40;99.90;;;;;;5034804;28;20030;-78
2023/06/04 08:51:05;;;;;;;0.10;0.10;;;14.20;99.90;;;;;;5035012;28;20567;-78
2023/06/04 08:53:31;;;;;;;0.20;0.20;;;14.10;99.90;;;;;;5017406;28;20029;-79
2023/06/04 08:55:57;;;;;;;0.17;0.17;;;14.00;99.90;;;;;;5036032;28;20083;-76
2023/06/04 08:58:24;;;;;;;0.13;0.13;;;14.00;99.90;;;;;;5034950;28;20021;-77
2023/06/04 09:00:50;;;;;;;0.20;0.20;;;14.10;99.90;;;;;;5036368;28;20574;-79
2023/06/04 09:03:17;;;;;;;0.20;0.20;;;14.20;99.90;;;;;;5035053;28;20063;-78
2023/06/04 09:05:47;;;;;;;0.20;0.20;;;14.00;99.90;;;;;;5034893;28;20487;-77
2023/06/04 09:08:15;;;;;;;0.20;0.20;;;13.90;99.90;;;;;;5019681;28;20029;-78
2023/06/04 09:10:41;;;;;;;0.20;0.20;;;13.80;99.90;;;;;;5034136;28;20394;-77
2023/06/04 09:13:08;;;;;;;0.20;0.20;;;13.80;99.90;;;;;;5034679;28;20160;-77
2023/06/04 09:15:33;;;;;;;0.20;0.20;;;13.70;99.90;;;;;;5034999;28;20025;-77
2023/06/04 09:17:59;;;;;;;0.30;0.30;;;13.70;99.90;;;;;;5034119;28;20028;-77
2023/06/04 09:20:25;;;;;;;0.20;0.20;;;13.70;99.90;;;;;;5035282;28;20032;-77
2023/06/04 09:22:51;;;;;;;0.20;0.20;;;13.70;99.90;;;;;;5034744;28;20025;-78
2023/06/04 09:25:21;;;;;;;0.30;0.30;;;13.60;99.90;;;;;;5018162;28;20398;-78
2023/06/04 09:27:47;;;;;;;0.10;0.10;;;13.70;99.90;;;;;;5019340;28;20035;-78
2023/06/04 09:30:13;;;;;;;0.10;0.10;;;13.70;99.90;;;;;;5036521;28;20104;-79
2023/06/04 09:32:39;;;;;;;0.20;0.20;;;13.70;99.90;;;;;;5034624;28;20021;-78
2023/06/04 09:35:13;;;;;;;0.20;0.20;;;13.50;99.90;;;;;;5035701;28;20025;-78
2023/06/04 09:37:40;;;;;;;0.20;0.20;;;13.40;99.90;;;;;;5016909;28;20029;-78
2023/06/04 09:40:07;;;;;;;0.15;0.15;;;13.40;99.90;;;;;;5033229;28;20533;-77
2023/06/04 09:42:45;;;;;;;0.20;0.20;;;13.40;99.90;;;;;;5033067;28;20061;-76
2023/06/04 09:45:11;;;;;;;0.20;0.20;;;13.40;99.90;;;;;;5033376;28;20059;-77
2023/06/04 09:47:43;;;;;;;0.20;0.20;;;13.50;99.90;;;;;;5033031;28;20451;-76
2023/06/04 09:50:11;;;;;;;0.20;0.20;;;13.60;99.90;;;;;;5015433;28;20029;-77
2023/06/04 09:52:37;;;;;;;0.20;0.20;;;13.70;99.90;;;;;;5015377;28;20495;-77
2023/06/04 09:55:03;;;;;;;0.20;0.20;;;13.60;99.90;;;;;;5033114;28;20113;-76
2023/06/04 09:57:30;;;;;;;0.20;0.20;;;13.60;99.90;;;;;;5033130;28;20538;-77
2023/06/04 09:59:57;;;;;;;0.20;0.20;;;13.70;99.90;;;;;;5033138;28;20499;-76
2023/06/04 10:02:23;;;;;;;0.13;0.13;;;13.60;99.90;;;;;;5033048;28;20057;-77
2023/06/04 10:04:57;;;;;;;0.20;0.20;;;13.60;99.90;;;;;;5033442;28;20064;-76
2023/06/04 10:07:24;;;;;;;0.20;0.20;;;13.40;99.90;;;;;;5033118;28;20395;-76
2023/06/04 10:09:50;;;;;;;0.10;0.10;;;13.40;99.90;;;;;;5033055;28;20114;-77
2023/06/04 10:12:20;;;;;;;0.13;0.13;;;13.50;99.90;;;;;;5033021;28;20217;-76
2023/06/04 10:14:53;;;;;;;0.20;0.20;;;13.50;99.90;;;;;;5015253;28;20399;-76
2023/06/04 10:17:22;;;;;;;0.20;0.20;;;13.70;99.90;;;;;;5033090;28;20032;-75
2023/06/04 10:19:54;;;;;;;0.20;0.20;;;13.60;99.90;;;;;;5033581;28;20021;-76
2023/06/04 10:22:23;;;;;;;0.10;0.10;;;13.80;99.90;;;;;;5033074;28;20018;-76
2023/06/04 10:24:49;;;;;;;0.20;0.20;;;13.80;99.90;;;;;;5032990;28;20026;-76
2023/06/04 10:27:17;;;;;;;0.20;0.20;;;13.90;99.90;;;;;;5015254;28;20029;-76
2023/06/04 10:29:44;;;;;;;0.20;0.20;;;13.90;99.90;;;;;;5015516;28;20103;-76
2023/06/04 10:32:10;;;;;;;0.20;0.20;;;14.10;99.90;;;;;;5032971;28;20025;-76
2023/06/04 10:34:36;;;;;;;0.10;0.10;;;14.30;99.90;;;;;;5033255;28;20515;-76
2023/06/04 10:37:02;;;;;;;0.20;0.20;;;14.40;99.90;;;;;;5033167;28;20033;-76
2023/06/04 10:39:29;;;;;;;0.20;0.20;;;14.30;99.90;;;;;;5033242;28;20033;-76
2023/06/04 10:42:02;;;;;;;0.20;0.20;;;14.50;99.90;;;;;;5033640;28;20022;-76
2023/06/04 10:44:30;;;;;;;0.20;0.20;;;14.60;99.90;;;;;;5034205;28;20029;-75
2023/06/04 10:46:57;;;;;;;0.20;0.20;;;14.70;99.90;;;;;;5034018;28;20092;-76
2023/06/04 10:49:27;;;;;;;0.20;0.20;;;14.90;99.90;;;;;;5035789;28;20116;-76
2023/06/04 10:51:56;;;;;;;0.10;0.10;;;14.90;99.90;;;;;;5032983;28;20056;-76
2023/06/04 10:54:25;;;;;;;0.20;0.20;;;14.90;99.90;;;;;;5032854;28;20424;-76
2023/06/04 10:56:52;;;;;;;0.10;0.10;;;15.00;99.90;;;;;;5015264;28;20037;-76
2023/06/04 10:59:18;;;;;;;0.10;0.10;;;15.20;99.90;;;;;;5032608;28;20021;-76
2023/06/04 11:01:45;;;;;;;0.20;0.20;;;15.30;99.90;;;;;;5032895;28;20438;-76
2023/06/04 11:04:24;;;;;;;0.20;0.20;;;15.30;99.90;;;;;;5014789;28;20048;-76
2023/06/04 11:07:08;;;;;;;0.20;0.20;;;15.30;99.90;;;;;;5018816;28;20095;-76
2023/06/04 11:09:34;;;;;;;0.20;0.20;;;15.30;99.90;;;;;;5036180;28;20025;-76
2023/06/04 11:12:00;;;;;;;0.10;0.10;;;15.20;99.90;;;;;;5036591;28;20049;-78
2023/06/04 11:14:26;;;;;;;0.20;0.20;;;15.00;99.90;;;;;;5019663;28;20123;-77
2023/06/04 11:16:52;;;;;;;0.20;0.20;;;14.80;99.90;;;;;;5036922;28;20018;-78
2023/06/04 11:19:17;;;;;;;0.20;0.20;;;14.70;99.90;;;;;;5036552;28;20100;-77
2023/06/04 11:21:44;;;;;;;0.20;0.20;;;14.50;99.90;;;;;;5036044;28;20024;-77
2023/06/04 11:24:12;;;;;;;0.10;0.10;;;14.50;99.90;;;;;;5036155;28;20033;-76
2023/06/04 11:26:38;;;;;;;0.20;0.20;;;14.50;99.90;;;;;;5036296;28;20053;-77
2023/06/04 11:29:08;;;;;;;0.17;0.17;;;14.50;99.90;;;;;;5035890;28;20056;-77
2023/06/04 11:31:44;;;;;;;0.10;0.10;;;14.70;99.90;;;;;;5035861;28;20014;-77
2023/06/04 11:34:11;;;;;;;0.20;0.20;;;15.00;99.90;;;;;;5035700;28;20449;-77
2023/06/04 11:36:37;;;;;;;0.20;0.20;;;14.70;99.90;;;;;;5018054;28;20032;-77
2023/06/04 11:39:07;;;;;;;0.20;0.20;;;14.70;99.90;;;;;;5017780;28;20029;-77
2023/06/04 11:41:35;;;;;;;0.10;0.10;;;14.90;99.90;;;;;;5036417;28;20029;-78
2023/06/04 11:44:05;;;;;;;0.10;0.10;;;15.10;99.90;;;;;;5036551;28;20076;-78
2023/06/04 11:46:32;;;;;;;0.20;0.20;;;15.30;99.90;;;;;;5036448;28;20032;-78
2023/06/04 11:48:59;;;;;;;0.20;0.20;;;15.50;99.90;;;;;;5036984;28;20017;-77
2023/06/04 11:51:24;;;;;;;0.20;0.20;;;15.70;99.90;;;;;;5036979;28;20014;-78
2023/06/04 11:53:50;;;;;;;0.13;0.13;;;15.60;99.90;;;;;;5018148;28;20502;-78
2023/06/04 11:56:16;;;;;;;0.17;0.17;;;15.60;99.90;;;;;;5036117;28;20029;-78
2023/06/04 11:58:42;;;;;;;0.20;0.20;;;15.60;99.90;;;;;;5036045;28;20383;-77
2023/06/04 12:01:08;;;;;;;0.20;0.20;;;15.50;99.90;;;;;;5035548;28;20013;-78
2023/06/04 12:03:37;;;;;;;0.20;0.20;;;15.60;99.90;;;;;;5035553;28;20014;-78
2023/06/04 12:06:10;;;;;;;0.20;0.20;;;15.80;99.90;;;;;;5035510;28;20079;-77
2023/06/04 12:08:55;;;;;;;0.10;0.10;;;15.90;99.90;;;;;;5035819;28;20534;-78
2023/06/04 12:11:34;;;;;;;0.10;0.10;;;16.00;99.90;;;;;;5036763;28;20038;-78
2023/06/04 12:14:17;;;;;;;0.20;0.20;;;16.20;99.90;;;;;;5037340;28;20025;-78
2023/06/04 12:16:42;;;;;;;0.10;0.10;;;16.30;99.90;;;;;;5034948;28;20030;-78
2023/06/04 12:19:09;;;;;;;0.10;0.10;;;16.40;99.90;;;;;;5018305;28;20048;-78
2023/06/04 12:21:35;;;;;;;0.20;0.20;;;16.30;99.90;;;;;;5036293;28;20017;-78
2023/06/04 12:24:07;;;;;;;0.20;0.20;;;16.30;99.90;;;;;;5018447;28;20029;-78
2023/06/04 12:26:37;;;;;;;0.10;0.10;;;17.10;99.90;;;;;;5037763;28;20024;-78
2023/06/04 12:29:10;;;;;;;0.10;0.10;;;18.30;99.90;;;;;;5038730;28;20014;-79
2023/06/04 12:31:35;;;;;;;0.13;0.13;;;19.00;99.90;;;;;;5038766;28;20045;-78
2023/06/04 12:34:01;;;;;;;0.10;0.10;;;19.80;99.90;;;;;;5039896;28;20036;-78
2023/06/04 12:36:28;;;;;;;0.13;0.13;;;20.20;99.90;;;;;;5018987;28;20033;-78
2023/06/04 12:38:58;;;;;;;0.10;0.10;;;20.60;99.90;;;;;;5038120;28;20132;-77
2023/06/04 12:41:23;;;;;;;0.10;0.10;;;21.30;99.90;;;;;;5037724;28;20029;-77
2023/06/04 12:43:49;;;;;;;0.10;0.10;;;22.00;99.90;;;;;;5037534;28;20017;-78
2023/06/04 12:46:14;;;;;;;0.10;0.10;;;22.40;99.90;;;;;;5019996;28;20560;-78
2023/06/04 12:48:40;;;;;;;0.10;0.10;;;22.30;99.90;;;;;;5037854;28;20514;-78